sensor_id;sensor_type;location;lat;lon;timestamp;P1;P2;P0
65574;PMS5003;52216;54.942;73.394;2023-04-24T00:02:49;7.25;6.00;2.50
65574;PMS5003;52216;54.942;73.394;2023-04-24T00:05:52;6.33;6.00;4.00
65574;PMS5003;52216;54.942;73.394;2023-04-24T00:09:05;7.80;7.80;3.00
65574;PMS5003;52216;54.942;73.394;2023-04-24T00:12:17;10.00;8.00;3.75
65574;PMS5003;52216;54.942;73.394;2023-04-24T00:15:20;8.00;7.00;3.00
65574;PMS5003;52216;54.942;73.394;2023-04-24T00:18:23;6.00;5.00;3.00
65574;PMS5003;52216;54.942;73.394;2023-04-24T00:21:28;7.00;5.50;3.00
65574;PMS5003;52216;54.942;73.394;2023-04-24T00:24:41;6.00;5.00;3.00
65574;PMS5003;52216;54.942;73.394;2023-04-24T00:27:44;7.00;6.00;3.00
65574;PMS5003;52216;54.942;73.394;2023-04-24T00:30:58;7.00;5.00;3.00
65574;PMS5003;52216;54.942;73.394;2023-04-24T00:34:01;5.00;5.00;2.00
65574;PMS5003;52216;54.942;73.394;2023-04-24T00:37:14;7.00;6.00;2.33
65574;PMS5003;52216;54.942;73.394;2023-04-24T00:40:21;7.00;7.00;2.00
65574;PMS5003;52216;54.942;73.394;2023-04-24T00:43:23;7.00;7.00;2.00
65574;PMS5003;52216;54.942;73.394;2023-04-24T00:46:25;8.00;8.00;5.00
65574;PMS5003;52216;54.942;73.394;2023-04-24T00:49:33;7.00;6.75;4.00
65574;PMS5003;52216;54.942;73.394;2023-04-24T00:52:37;10.25;10.25;5.00
65574;PMS5003;52216;54.942;73.394;2023-04-24T00:55:44;15.50;12.00;5.00
65574;PMS5003;52216;54.942;73.394;2023-04-24T00:58:47;17.00;12.00;5.50
65574;PMS5003;52216;54.942;73.394;2023-04-24T01:01:50;21.00;18.00;8.00
65574;PMS5003;52216;54.942;73.394;2023-04-24T01:04:52;27.00;23.50;12.50
65574;PMS5003;52216;54.942;73.394;2023-04-24T01:07:56;29.80;24.00;12.80
65574;PMS5003;52216;54.942;73.394;2023-04-24T01:10:58;25.00;22.00;12.00
65574;PMS5003;52216;54.942;73.394;2023-04-24T01:14:01;19.00;17.75;10.00
65574;PMS5003;52216;54.942;73.394;2023-04-24T01:17:04;16.00;15.25;7.00
65574;PMS5003;52216;54.942;73.394;2023-04-24T01:20:06;17.50;17.25;8.50
65574;PMS5003;52216;54.942;73.394;2023-04-24T01:23:11;19.60;17.40;10.00
65574;PMS5003;52216;54.942;73.394;2023-04-24T01:26:14;20.50;20.00;9.00
65574;PMS5003;52216;54.942;73.394;2023-04-24T01:29:16;22.00;19.00;10.33
65574;PMS5003;52216;54.942;73.394;2023-04-24T01:32:19;22.67;20.00;12.00
65574;PMS5003;52216;54.942;73.394;2023-04-24T01:35:21;23.50;21.00;13.00
65574;PMS5003;52216;54.942;73.394;2023-04-24T01:38:26;24.60;22.40;15.00
65574;PMS5003;52216;54.942;73.394;2023-04-24T01:41:29;26.60;25.00;15.60
65574;PMS5003;52216;54.942;73.394;2023-04-24T01:44:33;26.00;25.00;15.00
65574;PMS5003;52216;54.942;73.394;2023-04-24T01:47:36;26.60;24.00;15.00
65574;PMS5003;52216;54.942;73.394;2023-04-24T01:50:40;25.00;23.75;15.00
65574;PMS5003;52216;54.942;73.394;2023-04-24T01:53:43;19.00;19.00;12.00
65574;PMS5003;52216;54.942;73.394;2023-04-24T01:56:56;19.75;18.00;11.00
65574;PMS5003;52216;54.942;73.394;2023-04-24T02:00:26;18.00;18.00;9.00
65574;PMS5003;52216;54.942;73.394;2023-04-24T02:03:29;17.00;16.00;7.00
65574;PMS5003;52216;54.942;73.394;2023-04-24T02:06:38;16.00;16.00;6.00
65574;PMS5003;52216;54.942;73.394;2023-04-24T02:09:54;15.00;13.80;5.00
65574;PMS5003;52216;54.942;73.394;2023-04-24T02:13:07;11.50;10.00;5.00
65574;PMS5003;52216;54.942;73.394;2023-04-24T02:16:09;10.00;8.00;5.00
65574;PMS5003;52216;54.942;73.394;2023-04-24T02:19:31;12.00;10.25;5.00
65574;PMS5003;52216;54.942;73.394;2023-04-24T02:22:35;12.00;11.00;5.00
65574;PMS5003;52216;54.942;73.394;2023-04-24T02:25:38;14.00;12.00;5.00
65574;PMS5003;52216;54.942;73.394;2023-04-24T02:28:41;15.00;11.00;5.00
65574;PMS5003;52216;54.942;73.394;2023-04-24T02:31:53;15.00;10.75;5.00
65574;PMS5003;52216;54.942;73.394;2023-04-24T02:34:55;17.00;12.25;5.00
65574;PMS5003;52216;54.942;73.394;2023-04-24T02:38:03;17.00;14.00;5.00
65574;PMS5003;52216;54.942;73.394;2023-04-24T02:41:06;16.00;13.00;5.00
65574;PMS5003;52216;54.942;73.394;2023-04-24T02:44:13;16.00;13.00;5.00
65574;PMS5003;52216;54.942;73.394;2023-04-24T02:47:15;15.00;12.00;6.00
65574;PMS5003;52216;54.942;73.394;2023-04-24T02:50:17;13.00;13.00;5.00
65574;PMS5003;52216;54.942;73.394;2023-04-24T02:53:19;14.00;13.00;5.75
65574;PMS5003;52216;54.942;73.394;2023-04-24T02:56:21;13.00;11.50;5.00
65574;PMS5003;52216;54.942;73.394;2023-04-24T02:59:23;14.00;11.00;5.00
65574;PMS5003;52216;54.942;73.394;2023-04-24T03:02:26;12.25;11.25;5.75
65574;PMS5003;52216;54.942;73.394;2023-04-24T03:05:29;15.00;12.00;5.00
65574;PMS5003;52216;54.942;73.394;2023-04-24T03:08:32;14.00;11.50;5.50
65574;PMS5003;52216;54.942;73.394;2023-04-24T03:11:35;14.25;11.75;5.50
65574;PMS5003;52216;54.942;73.394;2023-04-24T03:14:37;14.00;11.00;6.00
65574;PMS5003;52216;54.942;73.394;2023-04-24T03:17:39;14.00;11.00;6.00
65574;PMS5003;52216;54.942;73.394;2023-04-24T03:20:47;14.00;11.75;5.50
65574;PMS5003;52216;54.942;73.394;2023-04-24T03:23:49;15.00;12.00;5.75
65574;PMS5003;52216;54.942;73.394;2023-04-24T03:26:52;17.00;15.50;7.00
65574;PMS5003;52216;54.942;73.394;2023-04-24T03:30:16;21.00;18.33;10.50
65574;PMS5003;52216;54.942;73.394;2023-04-24T03:33:32;20.00;17.00;11.00
65574;PMS5003;52216;54.942;73.394;2023-04-24T03:36:36;19.50;19.50;10.00
65574;PMS5003;52216;54.942;73.394;2023-04-24T03:39:43;22.83;22.00;11.00
65574;PMS5003;52216;54.942;73.394;2023-04-24T03:42:57;25.00;22.20;12.20
65574;PMS5003;52216;54.942;73.394;2023-04-24T03:46:01;26.00;23.00;14.00
65574;PMS5003;52216;54.942;73.394;2023-04-24T03:49:05;25.00;24.00;15.00
65574;PMS5003;52216;54.942;73.394;2023-04-24T03:52:11;25.33;21.33;14.00
65574;PMS5003;52216;54.942;73.394;2023-04-24T03:55:14;22.67;20.67;13.00
65574;PMS5003;52216;54.942;73.394;2023-04-24T03:58:23;19.00;18.00;11.75
65574;PMS5003;52216;54.942;73.394;2023-04-24T04:01:32;22.60;20.60;11.00
65574;PMS5003;52216;54.942;73.394;2023-04-24T04:04:39;22.50;21.00;11.00
65574;PMS5003;52216;54.942;73.394;2023-04-24T04:07:41;25.33;22.67;12.67
65574;PMS5003;52216;54.942;73.394;2023-04-24T04:10:45;27.40;24.20;14.20
65574;PMS5003;52216;54.942;73.394;2023-04-24T04:13:49;26.80;24.80;15.40
65574;PMS5003;52216;54.942;73.394;2023-04-24T04:16:54;29.25;25.75;16.00
65574;PMS5003;52216;54.942;73.394;2023-04-24T04:19:57;28.75;25.00;16.00
65574;PMS5003;52216;54.942;73.394;2023-04-24T04:23:01;29.40;26.60;15.40
65574;PMS5003;52216;54.942;73.394;2023-04-24T04:26:15;31.00;27.00;15.50
65574;PMS5003;52216;54.942;73.394;2023-04-24T04:29:43;31.20;27.20;16.00
65574;PMS5003;52216;54.942;73.394;2023-04-24T04:32:47;31.50;27.00;16.00
65574;PMS5003;52216;54.942;73.394;2023-04-24T04:35:50;29.00;25.00;16.00
65574;PMS5003;52216;54.942;73.394;2023-04-24T04:38:54;23.25;20.00;14.00
65574;PMS5003;52216;54.942;73.394;2023-04-24T04:42:18;20.75;17.00;10.00
65574;PMS5003;52216;54.942;73.394;2023-04-24T04:45:21;16.00;15.00;6.00
65574;PMS5003;52216;54.942;73.394;2023-04-24T04:48:43;14.00;12.00;5.00
65574;PMS5003;52216;54.942;73.394;2023-04-24T04:51:49;13.00;10.00;5.00
65574;PMS5003;52216;54.942;73.394;2023-04-24T04:54:56;12.67;9.67;5.00
65574;PMS5003;52216;54.942;73.394;2023-04-24T04:58:06;15.33;10.00;6.00
65574;PMS5003;52216;54.942;73.394;2023-04-24T05:01:08;15.00;12.75;6.00
65574;PMS5003;52216;54.942;73.394;2023-04-24T05:04:20;18.00;14.50;8.00
65574;PMS5003;52216;54.942;73.394;2023-04-24T05:07:22;21.00;18.00;9.00
65574;PMS5003;52216;54.942;73.394;2023-04-24T05:10:29;20.40;19.00;10.00
65574;PMS5003;52216;54.942;73.394;2023-04-24T05:13:43;20.60;19.00;9.40
65574;PMS5003;52216;54.942;73.394;2023-04-24T05:17:17;21.00;19.00;10.00
65574;PMS5003;52216;54.942;73.394;2023-04-24T05:20:25;17.75;15.00;7.00
65574;PMS5003;52216;54.942;73.394;2023-04-24T05:23:29;16.00;13.50;6.00
65574;PMS5003;52216;54.942;73.394;2023-04-24T05:26:34;13.75;10.00;5.00
65574;PMS5003;52216;54.942;73.394;2023-04-24T05:29:47;10.00;6.00;4.00
65574;PMS5003;52216;54.942;73.394;2023-04-24T05:32:50;12.00;8.00;5.00
65574;PMS5003;52216;54.942;73.394;2023-04-24T05:35:57;12.00;9.00;5.00
65574;PMS5003;52216;54.942;73.394;2023-04-24T05:39:01;12.33;10.00;5.67
65574;PMS5003;52216;54.942;73.394;2023-04-24T05:42:04;15.25;15.25;7.25
65574;PMS5003;52216;54.942;73.394;2023-04-24T05:45:10;19.00;17.00;7.00
65574;PMS5003;52216;54.942;73.394;2023-04-24T05:48:19;17.00;16.00;8.00
65574;PMS5003;52216;54.942;73.394;2023-04-24T05:51:31;20.50;19.00;9.00
65574;PMS5003;52216;54.942;73.394;2023-04-24T05:54:34;21.00;19.00;10.00
65574;PMS5003;52216;54.942;73.394;2023-04-24T05:57:36;20.00;20.00;9.00
65574;PMS5003;52216;54.942;73.394;2023-04-24T06:00:50;19.00;17.00;7.00
65574;PMS5003;52216;54.942;73.394;2023-04-24T06:03:53;18.00;16.50;8.50
65574;PMS5003;52216;54.942;73.394;2023-04-24T06:06:55;18.00;17.50;7.00
65574;PMS5003;52216;54.942;73.394;2023-04-24T06:10:04;18.50;17.25;8.25
65574;PMS5003;52216;54.942;73.394;2023-04-24T06:13:15;16.00;16.00;6.00
65574;PMS5003;52216;54.942;73.394;2023-04-24T06:16:30;14.00;14.00;5.00
65574;PMS5003;52216;54.942;73.394;2023-04-24T06:19:38;12.00;12.00;4.00
65574;PMS5003;52216;54.942;73.394;2023-04-24T06:22:42;9.25;9.25;4.75
65574;PMS5003;52216;54.942;73.394;2023-04-24T06:25:46;7.25;6.00;6.00
65574;PMS5003;52216;54.942;73.394;2023-04-24T06:28:49;10.00;9.75;6.00
65574;PMS5003;52216;54.942;73.394;2023-04-24T06:31:52;12.00;11.75;6.00
65574;PMS5003;52216;54.942;73.394;2023-04-24T06:34:55;11.00;11.00;5.00
65574;PMS5003;52216;54.942;73.394;2023-04-24T06:37:57;13.50;11.75;5.75
65574;PMS5003;52216;54.942;73.394;2023-04-24T06:40:59;13.50;10.00;5.00
65574;PMS5003;52216;54.942;73.394;2023-04-24T06:44:02;13.50;11.00;4.00
65574;PMS5003;52216;54.942;73.394;2023-04-24T06:47:14;10.67;7.00;5.00
65574;PMS5003;52216;54.942;73.394;2023-04-24T06:50:22;9.00;7.25;5.00
65574;PMS5003;52216;54.942;73.394;2023-04-24T06:53:23;9.00;9.00;5.00
65574;PMS5003;52216;54.942;73.394;2023-04-24T06:56:28;7.00;7.00;4.00
65574;PMS5003;52216;54.942;73.394;2023-04-24T06:59:32;8.00;8.00;4.75
65574;PMS5003;52216;54.942;73.394;2023-04-24T07:02:34;6.00;5.67;3.00
65574;PMS5003;52216;54.942;73.394;2023-04-24T07:05:36;8.00;7.50;3.00
65574;PMS5003;52216;54.942;73.394;2023-04-24T07:08:50;5.00;5.00;2.00
65574;PMS5003;52216;54.942;73.394;2023-04-24T07:11:52;7.00;7.00;3.75
65574;PMS5003;52216;54.942;73.394;2023-04-24T07:14:54;7.00;5.50;3.50
65574;PMS5003;52216;54.942;73.394;2023-04-24T07:17:56;4.50;4.00;2.00
65574;PMS5003;52216;54.942;73.394;2023-04-24T07:21:01;5.00;5.00;3.00
65574;PMS5003;52216;54.942;73.394;2023-04-24T07:24:13;5.00;4.25;3.00
65574;PMS5003;52216;54.942;73.394;2023-04-24T07:27:17;4.00;4.00;3.00
65574;PMS5003;52216;54.942;73.394;2023-04-24T07:30:20;5.00;5.00;3.00
65574;PMS5003;52216;54.942;73.394;2023-04-24T07:33:23;4.00;4.00;2.75
65574;PMS5003;52216;54.942;73.394;2023-04-24T07:36:35;7.00;5.25;2.00
65574;PMS5003;52216;54.942;73.394;2023-04-24T07:39:41;5.00;5.00;3.00
65574;PMS5003;52216;54.942;73.394;2023-04-24T07:42:44;4.75;4.00;1.00
65574;PMS5003;52216;54.942;73.394;2023-04-24T07:45:48;4.25;4.00;1.00
65574;PMS5003;52216;54.942;73.394;2023-04-24T07:48:51;4.00;4.00;2.00
65574;PMS5003;52216;54.942;73.394;2023-04-24T07:51:54;6.00;3.75;2.00
65574;PMS5003;52216;54.942;73.394;2023-04-24T07:54:56;4.25;4.25;3.00
65574;PMS5003;52216;54.942;73.394;2023-04-24T07:58:03;6.00;6.00;2.00
65574;PMS5003;52216;54.942;73.394;2023-04-24T08:01:07;6.00;6.00;2.00
65574;PMS5003;52216;54.942;73.394;2023-04-24T08:04:15;6.00;5.00;2.00
65574;PMS5003;52216;54.942;73.394;2023-04-24T08:07:18;5.00;5.00;3.00
65574;PMS5003;52216;54.942;73.394;2023-04-24T08:10:22;5.00;5.00;2.00
65574;PMS5003;52216;54.942;73.394;2023-04-24T08:13:42;4.00;4.00;2.00
65574;PMS5003;52216;54.942;73.394;2023-04-24T08:16:56;5.00;4.75;2.00
65574;PMS5003;52216;54.942;73.394;2023-04-24T08:19:59;4.00;4.00;2.00
65574;PMS5003;52216;54.942;73.394;2023-04-24T08:23:45;5.33;4.67;2.00
65574;PMS5003;52216;54.942;73.394;2023-04-24T08:26:49;4.00;3.00;1.00
65574;PMS5003;52216;54.942;73.394;2023-04-24T08:29:54;4.00;4.00;0.00
65574;PMS5003;52216;54.942;73.394;2023-04-24T08:32:57;3.00;3.00;0.00
65574;PMS5003;52216;54.942;73.394;2023-04-24T08:36:04;5.00;5.00;0.20
65574;PMS5003;52216;54.942;73.394;2023-04-24T08:39:06;3.00;2.50;0.00
65574;PMS5003;52216;54.942;73.394;2023-04-24T08:42:09;6.00;5.00;0.25
65574;PMS5003;52216;54.942;73.394;2023-04-24T08:45:14;5.00;5.00;3.00
65574;PMS5003;52216;54.942;73.394;2023-04-24T08:48:18;5.00;4.75;2.00
65574;PMS5003;52216;54.942;73.394;2023-04-24T08:51:21;5.00;5.00;3.00
65574;PMS5003;52216;54.942;73.394;2023-04-24T08:54:26;5.00;5.00;1.00
65574;PMS5003;52216;54.942;73.394;2023-04-24T08:57:28;5.00;5.00;2.00
65574;PMS5003;52216;54.942;73.394;2023-04-24T09:00:31;5.00;5.00;2.00
65574;PMS5003;52216;54.942;73.394;2023-04-24T09:03:44;4.25;4.25;1.00
65574;PMS5003;52216;54.942;73.394;2023-04-24T09:06:55;9.50;7.75;2.00
65574;PMS5003;52216;54.942;73.394;2023-04-24T09:09:58;10.75;8.00;3.00
65574;PMS5003;52216;54.942;73.394;2023-04-24T09:13:06;10.00;6.00;2.00
65574;PMS5003;52216;54.942;73.394;2023-04-24T09:16:16;5.00;5.00;1.00
65574;PMS5003;52216;54.942;73.394;2023-04-24T09:19:19;4.00;4.00;2.00
65574;PMS5003;52216;54.942;73.394;2023-04-24T09:22:24;3.00;3.00;1.00
65574;PMS5003;52216;54.942;73.394;2023-04-24T09:25:34;3.00;3.00;1.00
65574;PMS5003;52216;54.942;73.394;2023-04-24T09:28:39;1.00;1.00;0.00
65574;PMS5003;52216;54.942;73.394;2023-04-24T09:31:42;1.50;0.00;0.00
65574;PMS5003;52216;54.942;73.394;2023-04-24T09:34:46;2.00;1.25;0.00
65574;PMS5003;52216;54.942;73.394;2023-04-24T09:37:50;2.00;2.00;0.00
65574;PMS5003;52216;54.942;73.394;2023-04-24T09:40:59;4.00;4.00;0.00
65574;PMS5003;52216;54.942;73.394;2023-04-24T09:44:14;5.00;5.00;0.00
65574;PMS5003;52216;54.942;73.394;2023-04-24T09:47:22;2.00;2.00;0.00
65574;PMS5003;52216;54.942;73.394;2023-04-24T09:50:25;4.00;3.00;0.00
65574;PMS5003;52216;54.942;73.394;2023-04-24T09:53:28;3.00;3.00;0.00
65574;PMS5003;52216;54.942;73.394;2023-04-24T09:56:37;3.50;3.00;0.00
65574;PMS5003;52216;54.942;73.394;2023-04-24T09:59:56;3.00;3.00;0.00
65574;PMS5003;52216;54.942;73.394;2023-04-24T10:03:05;1.75;1.75;0.00
65574;PMS5003;52216;54.942;73.394;2023-04-24T10:06:07;1.00;1.00;0.00
65574;PMS5003;52216;54.942;73.394;2023-04-24T10:09:14;2.00;1.00;0.00
65574;PMS5003;52216;54.942;73.394;2023-04-24T10:12:18;1.50;0.75;0.00
65574;PMS5003;52216;54.942;73.394;2023-04-24T10:15:22;0.00;0.00;0.00
65574;PMS5003;52216;54.942;73.394;2023-04-24T10:18:25;0.00;0.00;0.00
65574;PMS5003;52216;54.942;73.394;2023-04-24T10:21:29;0.00;0.00;0.00
65574;PMS5003;52216;54.942;73.394;2023-04-24T10:24:38;0.00;0.00;0.00
65574;PMS5003;52216;54.942;73.394;2023-04-24T10:27:42;0.00;0.00;0.00
65574;PMS5003;52216;54.942;73.394;2023-04-24T10:30:55;0.00;0.00;0.00
65574;PMS5003;52216;54.942;73.394;2023-04-24T10:34:00;0.00;0.00;0.00
65574;PMS5003;52216;54.942;73.394;2023-04-24T10:37:14;0.00;0.00;0.00
65574;PMS5003;52216;54.942;73.394;2023-04-24T10:40:18;1.00;0.00;0.00
65574;PMS5003;52216;54.942;73.394;2023-04-24T10:43:22;2.00;0.00;0.00
65574;PMS5003;52216;54.942;73.394;2023-04-24T10:46:25;0.00;0.00;0.00
65574;PMS5003;52216;54.942;73.394;2023-04-24T10:49:30;0.00;0.00;0.00
65574;PMS5003;52216;54.942;73.394;2023-04-24T10:52:48;1.00;1.00;0.00
65574;PMS5003;52216;54.942;73.394;2023-04-24T10:56:02;0.00;0.00;0.00
65574;PMS5003;52216;54.942;73.394;2023-04-24T10:59:07;2.00;0.25;0.00
65574;PMS5003;52216;54.942;73.394;2023-04-24T11:02:18;0.00;0.00;0.00
65574;PMS5003;52216;54.942;73.394;2023-04-24T11:05:21;0.75;0.00;0.00
65574;PMS5003;52216;54.942;73.394;2023-04-24T11:08:37;0.00;0.00;0.00
65574;PMS5003;52216;54.942;73.394;2023-04-24T11:11:44;0.00;0.00;0.00
65574;PMS5003;52216;54.942;73.394;2023-04-24T11:17:58;0.00;0.00;0.00
65574;PMS5003;52216;54.942;73.394;2023-04-24T11:21:09;0.00;0.00;0.00
65574;PMS5003;52216;54.942;73.394;2023-04-24T11:24:25;0.00;0.00;0.00
65574;PMS5003;52216;54.942;73.394;2023-04-24T11:27:28;0.00;0.00;0.00
65574;PMS5003;52216;54.942;73.394;2023-04-24T11:30:38;0.00;0.00;0.00
65574;PMS5003;52216;54.942;73.394;2023-04-24T11:33:42;0.00;0.00;0.00
65574;PMS5003;52216;54.942;73.394;2023-04-24T11:36:50;0.00;0.00;0.00
65574;PMS5003;52216;54.942;73.394;2023-04-24T11:39:55;0.00;0.00;0.00
65574;PMS5003;52216;54.942;73.394;2023-04-24T11:43:08;0.25;0.00;0.00
65574;PMS5003;52216;54.942;73.394;2023-04-24T11:46:12;0.00;0.00;0.00
65574;PMS5003;52216;54.942;73.394;2023-04-24T11:49:29;0.00;0.00;0.00
65574;PMS5003;52216;54.942;73.394;2023-04-24T11:52:31;0.00;0.00;0.00
65574;PMS5003;52216;54.942;73.394;2023-04-24T11:55:44;0.00;0.00;0.00
65574;PMS5003;52216;54.942;73.394;2023-04-24T11:58:47;0.50;0.00;0.00
65574;PMS5003;52216;54.942;73.394;2023-04-24T12:01:49;1.25;1.00;0.00
65574;PMS5003;52216;54.942;73.394;2023-04-24T12:05:33;0.67;0.67;0.00
65574;PMS5003;52216;54.942;73.394;2023-04-24T12:08:37;2.00;1.00;0.00
65574;PMS5003;52216;54.942;73.394;2023-04-24T12:11:52;0.00;0.00;0.00
65574;PMS5003;52216;54.942;73.394;2023-04-24T12:15:06;0.00;0.00;0.00
65574;PMS5003;52216;54.942;73.394;2023-04-24T12:18:11;2.00;0.00;0.00
65574;PMS5003;52216;54.942;73.394;2023-04-24T12:21:16;2.00;2.00;0.00
65574;PMS5003;52216;54.942;73.394;2023-04-24T12:24:24;0.00;0.00;0.00
65574;PMS5003;52216;54.942;73.394;2023-04-24T12:27:33;0.00;0.00;0.00
65574;PMS5003;52216;54.942;73.394;2023-04-24T12:30:41;0.00;0.00;0.00
65574;PMS5003;52216;54.942;73.394;2023-04-24T12:33:45;0.00;0.00;0.00
65574;PMS5003;52216;54.942;73.394;2023-04-24T12:36:49;1.00;1.00;0.00
65574;PMS5003;52216;54.942;73.394;2023-04-24T12:43:38;2.00;2.00;0.00
65574;PMS5003;52216;54.942;73.394;2023-04-24T12:46:41;1.50;1.00;0.00
65574;PMS5003;52216;54.942;73.394;2023-04-24T12:49:45;4.50;3.25;0.00
65574;PMS5003;52216;54.942;73.394;2023-04-24T12:52:48;0.00;0.00;0.00
65574;PMS5003;52216;54.942;73.394;2023-04-24T12:55:51;0.00;0.00;0.00
65574;PMS5003;52216;54.942;73.394;2023-04-24T12:58:55;1.25;0.25;0.00
65574;PMS5003;52216;54.942;73.394;2023-04-24T13:01:58;0.00;0.00;0.00
65574;PMS5003;52216;54.942;73.394;2023-04-24T13:05:02;0.00;0.00;0.00
65574;PMS5003;52216;54.942;73.394;2023-04-24T13:08:09;0.00;0.00;0.00
65574;PMS5003;52216;54.942;73.394;2023-04-24T13:11:12;0.00;0.00;0.00
65574;PMS5003;52216;54.942;73.394;2023-04-24T13:14:15;0.00;0.00;0.00
65574;PMS5003;52216;54.942;73.394;2023-04-24T13:17:18;0.50;0.00;0.00
65574;PMS5003;52216;54.942;73.394;2023-04-24T13:20:21;2.00;0.00;0.00
65574;PMS5003;52216;54.942;73.394;2023-04-24T13:23:24;1.00;0.75;0.00
65574;PMS5003;52216;54.942;73.394;2023-04-24T13:26:28;1.25;0.25;0.00
65574;PMS5003;52216;54.942;73.394;2023-04-24T13:29:31;0.00;0.00;0.00
65574;PMS5003;52216;54.942;73.394;2023-04-24T13:32:34;0.00;0.00;0.00
65574;PMS5003;52216;54.942;73.394;2023-04-24T13:35:46;0.00;0.00;0.00
65574;PMS5003;52216;54.942;73.394;2023-04-24T13:38:55;0.00;0.00;0.00
65574;PMS5003;52216;54.942;73.394;2023-04-24T13:41:58;0.00;0.00;0.00
65574;PMS5003;52216;54.942;73.394;2023-04-24T13:45:01;0.00;0.00;0.00
65574;PMS5003;52216;54.942;73.394;2023-04-24T13:48:06;0.00;0.00;0.00
65574;PMS5003;52216;54.942;73.394;2023-04-24T13:51:10;0.00;0.00;0.00
65574;PMS5003;52216;54.942;73.394;2023-04-24T13:54:13;0.00;0.00;0.00
65574;PMS5003;52216;54.942;73.394;2023-04-24T13:57:17;0.00;0.00;0.00
65574;PMS5003;52216;54.942;73.394;2023-04-24T14:00:20;0.00;0.00;0.00
65574;PMS5003;52216;54.942;73.394;2023-04-24T14:03:28;0.00;0.00;0.00
65574;PMS5003;52216;54.942;73.394;2023-04-24T14:06:39;0.00;0.00;0.00
65574;PMS5003;52216;54.942;73.394;2023-04-24T14:09:47;0.00;0.00;0.00
65574;PMS5003;52216;54.942;73.394;2023-04-24T14:12:50;0.00;0.00;0.00
65574;PMS5003;52216;54.942;73.394;2023-04-24T14:15:54;0.00;0.00;0.00
65574;PMS5003;52216;54.942;73.394;2023-04-24T14:18:57;0.00;0.00;0.00
65574;PMS5003;52216;54.942;73.394;2023-04-24T14:22:00;0.00;0.00;0.00
65574;PMS5003;52216;54.942;73.394;2023-04-24T14:25:04;0.00;0.00;0.00
65574;PMS5003;52216;54.942;73.394;2023-04-24T14:28:07;0.00;0.00;0.00
65574;PMS5003;52216;54.942;73.394;2023-04-24T14:31:13;0.00;0.00;0.00
65574;PMS5003;52216;54.942;73.394;2023-04-24T14:34:16;0.00;0.00;0.00
65574;PMS5003;52216;54.942;73.394;2023-04-24T14:37:30;0.00;0.00;0.00
65574;PMS5003;52216;54.942;73.394;2023-04-24T14:40:33;0.00;0.00;0.00
65574;PMS5003;52216;54.942;73.394;2023-04-24T14:43:36;0.00;0.00;0.00
65574;PMS5003;52216;54.942;73.394;2023-04-24T14:46:56;0.00;0.00;0.00
65574;PMS5003;52216;54.942;73.394;2023-04-24T14:49:59;0.00;0.00;0.00
65574;PMS5003;52216;54.942;73.394;2023-04-24T14:53:02;0.00;0.00;0.00
65574;PMS5003;52216;54.942;73.394;2023-04-24T14:56:06;0.00;0.00;0.00
65574;PMS5003;52216;54.942;73.394;2023-04-24T14:59:09;0.00;0.00;0.00
65574;PMS5003;52216;54.942;73.394;2023-04-24T15:02:11;0.00;0.00;0.00
65574;PMS5003;52216;54.942;73.394;2023-04-24T15:05:14;0.00;0.00;0.00
65574;PMS5003;52216;54.942;73.394;2023-04-24T15:08:28;0.00;0.00;0.00
65574;PMS5003;52216;54.942;73.394;2023-04-24T15:11:58;0.00;0.00;0.00
65574;PMS5003;52216;54.942;73.394;2023-04-24T15:15:01;0.00;0.00;0.00
65574;PMS5003;52216;54.942;73.394;2023-04-24T15:18:09;0.00;0.00;0.00
65574;PMS5003;52216;54.942;73.394;2023-04-24T15:21:19;0.00;0.00;0.00
65574;PMS5003;52216;54.942;73.394;2023-04-24T15:24:27;0.00;0.00;0.00
65574;PMS5003;52216;54.942;73.394;2023-04-24T15:27:43;0.00;0.00;0.00
65574;PMS5003;52216;54.942;73.394;2023-04-24T15:30:45;0.00;0.00;0.00
65574;PMS5003;52216;54.942;73.394;2023-04-24T15:33:49;0.00;0.00;0.00
65574;PMS5003;52216;54.942;73.394;2023-04-24T15:36:51;0.00;0.00;0.00
65574;PMS5003;52216;54.942;73.394;2023-04-24T15:39:54;0.00;0.00;0.00
65574;PMS5003;52216;54.942;73.394;2023-04-24T15:42:57;0.00;0.00;0.00
65574;PMS5003;52216;54.942;73.394;2023-04-24T15:46:00;0.00;0.00;0.00
65574;PMS5003;52216;54.942;73.394;2023-04-24T15:49:03;0.00;0.00;0.00
65574;PMS5003;52216;54.942;73.394;2023-04-24T15:52:12;0.00;0.00;0.00
65574;PMS5003;52216;54.942;73.394;2023-04-24T15:55:16;0.00;0.00;0.00
65574;PMS5003;52216;54.942;73.394;2023-04-24T15:58:19;0.00;0.00;0.00
65574;PMS5003;52216;54.942;73.394;2023-04-24T16:01:22;0.00;0.00;0.00
65574;PMS5003;52216;54.942;73.394;2023-04-24T16:04:25;0.00;0.00;0.00
65574;PMS5003;52216;54.942;73.394;2023-04-24T16:07:27;0.00;0.00;0.00
65574;PMS5003;52216;54.942;73.394;2023-04-24T16:10:30;0.00;0.00;0.00
65574;PMS5003;52216;54.942;73.394;2023-04-24T16:13:37;0.00;0.00;0.00
65574;PMS5003;52216;54.942;73.394;2023-04-24T16:16:40;0.00;0.00;0.00
65574;PMS5003;52216;54.942;73.394;2023-04-24T16:19:44;0.00;0.00;0.00
65574;PMS5003;52216;54.942;73.394;2023-04-24T16:22:47;0.00;0.00;0.00
65574;PMS5003;52216;54.942;73.394;2023-04-24T16:25:50;0.00;0.00;0.00
65574;PMS5003;52216;54.942;73.394;2023-04-24T16:28:53;0.00;0.00;0.00
65574;PMS5003;52216;54.942;73.394;2023-04-24T16:31:57;0.00;0.00;0.00
65574;PMS5003;52216;54.942;73.394;2023-04-24T16:35:05;0.00;0.00;0.00
65574;PMS5003;52216;54.942;73.394;2023-04-24T16:38:09;0.00;0.00;0.00
65574;PMS5003;52216;54.942;73.394;2023-04-24T16:41:13;0.00;0.00;0.00
65574;PMS5003;52216;54.942;73.394;2023-04-24T16:44:16;0.00;0.00;0.00
65574;PMS5003;52216;54.942;73.394;2023-04-24T16:47:29;0.00;0.00;0.00
65574;PMS5003;52216;54.942;73.394;2023-04-24T16:50:32;0.00;0.00;0.00
65574;PMS5003;52216;54.942;73.394;2023-04-24T16:53:35;0.00;0.00;0.00
65574;PMS5003;52216;54.942;73.394;2023-04-24T16:56:38;0.00;0.00;0.00
65574;PMS5003;52216;54.942;73.394;2023-04-24T16:59:42;0.00;0.00;0.00
65574;PMS5003;52216;54.942;73.394;2023-04-24T17:02:55;0.00;0.00;0.00
65574;PMS5003;52216;54.942;73.394;2023-04-24T17:06:03;1.00;0.00;0.00
65574;PMS5003;52216;54.942;73.394;2023-04-24T17:09:06;0.00;0.00;0.00
65574;PMS5003;52216;54.942;73.394;2023-04-24T17:12:10;0.00;0.00;0.00
65574;PMS5003;52216;54.942;73.394;2023-04-24T17:15:13;0.00;0.00;0.00
65574;PMS5003;52216;54.942;73.394;2023-04-24T17:18:17;0.00;0.00;0.00
65574;PMS5003;52216;54.942;73.394;2023-04-24T17:21:20;0.00;0.00;0.00
65574;PMS5003;52216;54.942;73.394;2023-04-24T17:24:23;0.00;0.00;0.00
65574;PMS5003;52216;54.942;73.394;2023-04-24T17:27:31;0.00;0.00;0.00
65574;PMS5003;52216;54.942;73.394;2023-04-24T17:30:34;0.00;0.00;0.00
65574;PMS5003;52216;54.942;73.394;2023-04-24T17:33:43;0.00;0.00;0.00
65574;PMS5003;52216;54.942;73.394;2023-04-24T17:36:46;0.00;0.00;0.00
65574;PMS5003;52216;54.942;73.394;2023-04-24T17:39:49;0.00;0.00;0.00
65574;PMS5003;52216;54.942;73.394;2023-04-24T17:42:52;0.00;0.00;0.00
65574;PMS5003;52216;54.942;73.394;2023-04-24T17:45:56;0.00;0.00;0.00
65574;PMS5003;52216;54.942;73.394;2023-04-24T17:48:59;0.00;0.00;0.00
65574;PMS5003;52216;54.942;73.394;2023-04-24T17:52:03;0.00;0.00;0.00